sensor_id;sensor_type;location;lat;lon;timestamp;temperature;humidity
54126;DHT22;40360;52.992;6.796;2023-04-01T00:02:07;10.10;99.90
54126;DHT22;40360;52.992;6.796;2023-04-01T00:04:33;10.00;99.90
54126;DHT22;40360;52.992;6.796;2023-04-01T00:06:59;10.10;99.90
54126;DHT22;40360;52.992;6.796;2023-04-01T00:09:25;10.00;99.90
54126;DHT22;40360;52.992;6.796;2023-04-01T00:11:51;10.00;99.90
54126;DHT22;40360;52.992;6.796;2023-04-01T00:14:17;10.10;99.90
54126;DHT22;40360;52.992;6.796;2023-04-01T00:16:43;10.00;99.90
54126;DHT22;40360;52.992;6.796;2023-04-01T00:19:08;10.00;99.90
54126;DHT22;40360;52.992;6.796;2023-04-01T00:21:35;10.00;99.90
54126;DHT22;40360;52.992;6.796;2023-04-01T00:24:01;10.00;99.90
54126;DHT22;40360;52.992;6.796;2023-04-01T00:26:26;10.00;99.90
54126;DHT22;40360;52.992;6.796;2023-04-01T00:28:52;10.00;99.90
54126;DHT22;40360;52.992;6.796;2023-04-01T00:31:18;10.00;99.90
54126;DHT22;40360;52.992;6.796;2023-04-01T00:33:44;10.00;99.90
54126;DHT22;40360;52.992;6.796;2023-04-01T00:36:12;10.00;99.90
54126;DHT22;40360;52.992;6.796;2023-04-01T00:38:38;10.00;99.90
54126;DHT22;40360;52.992;6.796;2023-04-01T00:41:05;10.00;99.90
54126;DHT22;40360;52.992;6.796;2023-04-01T00:43:31;10.00;99.90
54126;DHT22;40360;52.992;6.796;2023-04-01T00:45:56;10.00;99.90
54126;DHT22;40360;52.992;6.796;2023-04-01T00:48:25;10.00;99.90
54126;DHT22;40360;52.992;6.796;2023-04-01T00:50:59;10.00;99.90
54126;DHT22;40360;52.992;6.796;2023-04-01T00:53:26;10.00;99.90
54126;DHT22;40360;52.992;6.796;2023-04-01T00:56:01;10.00;99.90
54126;DHT22;40360;52.992;6.796;2023-04-01T00:58:31;10.00;99.90
54126;DHT22;40360;52.992;6.796;2023-04-01T01:00:59;10.00;99.90
54126;DHT22;40360;52.992;6.796;2023-04-01T01:03:25;10.00;99.90
54126;DHT22;40360;52.992;6.796;2023-04-01T01:11:35;10.00;99.90
54126;DHT22;40360;52.992;6.796;2023-04-01T01:14:12;10.00;99.90
54126;DHT22;40360;52.992;6.796;2023-04-01T01:16:48;10.00;99.90
54126;DHT22;40360;52.992;6.796;2023-04-01T01:25:35;10.00;99.90
54126;DHT22;40360;52.992;6.796;2023-04-01T01:28:33;10.00;99.90
54126;DHT22;40360;52.992;6.796;2023-04-01T01:34:11;10.00;99.90
54126;DHT22;40360;52.992;6.796;2023-04-01T01:36:42;10.00;99.90
54126;DHT22;40360;52.992;6.796;2023-04-01T01:39:12;9.90;99.90
54126;DHT22;40360;52.992;6.796;2023-04-01T01:41:39;9.90;99.90
54126;DHT22;40360;52.992;6.796;2023-04-01T01:44:08;10.10;99.90
54126;DHT22;40360;52.992;6.796;2023-04-01T01:46:35;9.90;99.90
54126;DHT22;40360;52.992;6.796;2023-04-01T01:49:05;9.90;99.90
54126;DHT22;40360;52.992;6.796;2023-04-01T01:51:32;9.90;99.90
54126;DHT22;40360;52.992;6.796;2023-04-01T01:53:58;10.10;99.90
54126;DHT22;40360;52.992;6.796;2023-04-01T01:56:26;9.90;99.90
54126;DHT22;40360;52.992;6.796;2023-04-01T01:58:58;9.90;99.90
54126;DHT22;40360;52.992;6.796;2023-04-01T02:01:27;9.90;99.90
54126;DHT22;40360;52.992;6.796;2023-04-01T02:03:55;10.00;99.90
54126;DHT22;40360;52.992;6.796;2023-04-01T02:06:23;9.90;99.90
54126;DHT22;40360;52.992;6.796;2023-04-01T02:09:06;10.10;99.90
54126;DHT22;40360;52.992;6.796;2023-04-01T02:11:43;9.90;99.90
54126;DHT22;40360;52.992;6.796;2023-04-01T02:14:15;9.90;99.90
54126;DHT22;40360;52.992;6.796;2023-04-01T02:17:04;9.90;99.90
54126;DHT22;40360;52.992;6.796;2023-04-01T02:19:43;9.90;99.90
54126;DHT22;40360;52.992;6.796;2023-04-01T02:22:14;9.90;99.90
54126;DHT22;40360;52.992;6.796;2023-04-01T02:24:42;9.90;99.90
54126;DHT22;40360;52.992;6.796;2023-04-01T02:27:10;9.90;99.90
54126;DHT22;40360;52.992;6.796;2023-04-01T02:29:36;9.90;99.90
54126;DHT22;40360;52.992;6.796;2023-04-01T02:32:02;9.90;99.90
54126;DHT22;40360;52.992;6.796;2023-04-01T02:34:28;9.90;99.90
54126;DHT22;40360;52.992;6.796;2023-04-01T02:36:55;9.90;99.90
54126;DHT22;40360;52.992;6.796;2023-04-01T02:39:22;9.90;99.90
54126;DHT22;40360;52.992;6.796;2023-04-01T02:41:48;9.80;99.90
54126;DHT22;40360;52.992;6.796;2023-04-01T02:44:14;9.90;99.90
54126;DHT22;40360;52.992;6.796;2023-04-01T02:46:40;9.90;99.90
54126;DHT22;40360;52.992;6.796;2023-04-01T02:49:06;9.80;99.90
54126;DHT22;40360;52.992;6.796;2023-04-01T02:51:32;9.90;99.90
54126;DHT22;40360;52.992;6.796;2023-04-01T02:53:58;9.80;99.90
54126;DHT22;40360;52.992;6.796;2023-04-01T02:56:24;9.90;99.90
54126;DHT22;40360;52.992;6.796;2023-04-01T02:58:49;9.90;99.90
54126;DHT22;40360;52.992;6.796;2023-04-01T03:01:16;9.90;99.90
54126;DHT22;40360;52.992;6.796;2023-04-01T03:03:41;9.90;99.90
54126;DHT22;40360;52.992;6.796;2023-04-01T03:06:12;9.80;99.90
54126;DHT22;40360;52.992;6.796;2023-04-01T03:08:39;9.90;99.90
54126;DHT22;40360;52.992;6.796;2023-04-01T03:11:05;9.80;99.90
54126;DHT22;40360;52.992;6.796;2023-04-01T03:13:31;9.80;99.90
54126;DHT22;40360;52.992;6.796;2023-04-01T03:15:57;9.80;99.90
54126;DHT22;40360;52.992;6.796;2023-04-01T03:18:23;9.80;99.90
54126;DHT22;40360;52.992;6.796;2023-04-01T03:20:49;10.00;99.90
54126;DHT22;40360;52.992;6.796;2023-04-01T03:23:15;9.80;99.90
54126;DHT22;40360;52.992;6.796;2023-04-01T03:25:42;9.80;99.90
54126;DHT22;40360;52.992;6.796;2023-04-01T03:28:08;9.80;99.90
54126;DHT22;40360;52.992;6.796;2023-04-01T03:30:34;9.80;99.90
54126;DHT22;40360;52.992;6.796;2023-04-01T03:33:00;9.80;99.90
54126;DHT22;40360;52.992;6.796;2023-04-01T03:35:26;9.80;99.90
54126;DHT22;40360;52.992;6.796;2023-04-01T03:37:53;9.80;99.90
54126;DHT22;40360;52.992;6.796;2023-04-01T03:40:19;9.80;99.90
54126;DHT22;40360;52.992;6.796;2023-04-01T03:42:44;9.90;99.90
54126;DHT22;40360;52.992;6.796;2023-04-01T03:45:11;9.90;99.90
54126;DHT22;40360;52.992;6.796;2023-04-01T03:47:38;9.80;99.90
54126;DHT22;40360;52.992;6.796;2023-04-01T03:50:05;9.80;99.90
54126;DHT22;40360;52.992;6.796;2023-04-01T03:52:30;9.80;99.90
54126;DHT22;40360;52.992;6.796;2023-04-01T03:54:56;9.90;99.90
54126;DHT22;40360;52.992;6.796;2023-04-01T03:57:22;9.80;99.90
54126;DHT22;40360;52.992;6.796;2023-04-01T03:59:47;9.90;99.90
54126;DHT22;40360;52.992;6.796;2023-04-01T04:02:13;9.90;99.90
54126;DHT22;40360;52.992;6.796;2023-04-01T04:04:38;9.90;99.90
54126;DHT22;40360;52.992;6.796;2023-04-01T04:07:05;9.90;99.90
54126;DHT22;40360;52.992;6.796;2023-04-01T04:09:31;9.80;99.90
54126;DHT22;40360;52.992;6.796;2023-04-01T04:11:57;10.00;99.90
54126;DHT22;40360;52.992;6.796;2023-04-01T04:14:23;9.90;99.90
54126;DHT22;40360;52.992;6.796;2023-04-01T04:16:48;9.90;99.90
54126;DHT22;40360;52.992;6.796;2023-04-01T04:19:14;9.80;99.90
54126;DHT22;40360;52.992;6.796;2023-04-01T04:21:41;9.90;99.90
54126;DHT22;40360;52.992;6.796;2023-04-01T04:24:07;9.90;99.90
54126;DHT22;40360;52.992;6.796;2023-04-01T04:26:33;9.80;99.90
54126;DHT22;40360;52.992;6.796;2023-04-01T04:28:59;9.90;99.90
54126;DHT22;40360;52.992;6.796;2023-04-01T04:31:25;9.80;99.90
54126;DHT22;40360;52.992;6.796;2023-04-01T04:33:51;9.80;99.90
54126;DHT22;40360;52.992;6.796;2023-04-01T04:36:19;9.90;99.90
54126;DHT22;40360;52.992;6.796;2023-04-01T04:38:45;9.90;99.90
54126;DHT22;40360;52.992;6.796;2023-04-01T04:41:11;9.90;99.90
54126;DHT22;40360;52.992;6.796;2023-04-01T04:43:39;9.90;99.90
54126;DHT22;40360;52.992;6.796;2023-04-01T04:46:09;9.80;99.90
54126;DHT22;40360;52.992;6.796;2023-04-01T04:48:35;9.80;99.90
54126;DHT22;40360;52.992;6.796;2023-04-01T04:51:01;9.80;99.90
54126;DHT22;40360;52.992;6.796;2023-04-01T04:53:27;9.80;99.90
54126;DHT22;40360;52.992;6.796;2023-04-01T04:55:53;9.80;99.90
54126;DHT22;40360;52.992;6.796;2023-04-01T04:58:19;9.80;99.90
54126;DHT22;40360;52.992;6.796;2023-04-01T05:00:45;9.80;99.90
54126;DHT22;40360;52.992;6.796;2023-04-01T05:03:11;9.80;99.90
54126;DHT22;40360;52.992;6.796;2023-04-01T05:05:37;9.80;99.90
54126;DHT22;40360;52.992;6.796;2023-04-01T05:08:03;9.80;99.90
54126;DHT22;40360;52.992;6.796;2023-04-01T05:10:29;9.80;99.90
54126;DHT22;40360;52.992;6.796;2023-04-01T05:12:56;9.80;99.90
54126;DHT22;40360;52.992;6.796;2023-04-01T05:15:21;9.80;99.90
54126;DHT22;40360;52.992;6.796;2023-04-01T05:17:47;9.80;99.90
54126;DHT22;40360;52.992;6.796;2023-04-01T05:20:13;9.80;99.90
54126;DHT22;40360;52.992;6.796;2023-04-01T05:22:40;9.70;99.90
54126;DHT22;40360;52.992;6.796;2023-04-01T05:25:06;9.70;99.90
54126;DHT22;40360;52.992;6.796;2023-04-01T05:27:32;9.70;99.90
54126;DHT22;40360;52.992;6.796;2023-04-01T05:29:58;9.70;99.90
54126;DHT22;40360;52.992;6.796;2023-04-01T05:32:24;9.70;99.90
54126;DHT22;40360;52.992;6.796;2023-04-01T05:34:51;9.70;99.90
54126;DHT22;40360;52.992;6.796;2023-04-01T05:37:18;9.70;99.90
54126;DHT22;40360;52.992;6.796;2023-04-01T05:39:44;9.70;99.90
54126;DHT22;40360;52.992;6.796;2023-04-01T05:42:09;9.70;99.90
54126;DHT22;40360;52.992;6.796;2023-04-01T06:01:11;9.60;99.90
54126;DHT22;40360;52.992;6.796;2023-04-01T06:03:37;9.60;99.90
54126;DHT22;40360;52.992;6.796;2023-04-01T06:06:03;9.60;99.90
54126;DHT22;40360;52.992;6.796;2023-04-01T06:08:31;9.60;99.90
54126;DHT22;40360;52.992;6.796;2023-04-01T06:11:23;9.60;99.90
54126;DHT22;40360;52.992;6.796;2023-04-01T06:21:56;9.60;99.90
54126;DHT22;40360;52.992;6.796;2023-04-01T06:29:50;9.70;99.90
54126;DHT22;40360;52.992;6.796;2023-04-01T06:32:32;9.70;99.90
54126;DHT22;40360;52.992;6.796;2023-04-01T06:35:14;9.80;99.90
54126;DHT22;40360;52.992;6.796;2023-04-01T06:45:37;10.00;99.90
54126;DHT22;40360;52.992;6.796;2023-04-01T06:56:05;10.20;99.90
54126;DHT22;40360;52.992;6.796;2023-04-01T06:58:42;10.20;99.90
54126;DHT22;40360;52.992;6.796;2023-04-01T07:01:16;10.30;99.90
54126;DHT22;40360;52.992;6.796;2023-04-01T07:03:47;10.30;99.90
54126;DHT22;40360;52.992;6.796;2023-04-01T07:06:24;10.40;99.90
54126;DHT22;40360;52.992;6.796;2023-04-01T07:08:52;10.40;99.90
54126;DHT22;40360;52.992;6.796;2023-04-01T07:11:31;10.40;99.90
54126;DHT22;40360;52.992;6.796;2023-04-01T07:14:31;10.50;99.90
54126;DHT22;40360;52.992;6.796;2023-04-01T07:19:34;10.60;99.90
54126;DHT22;40360;52.992;6.796;2023-04-01T07:22:14;10.60;99.90
54126;DHT22;40360;52.992;6.796;2023-04-01T07:24:44;10.70;99.90
54126;DHT22;40360;52.992;6.796;2023-04-01T07:27:12;10.70;99.90
54126;DHT22;40360;52.992;6.796;2023-04-01T07:29:38;10.80;99.90
54126;DHT22;40360;52.992;6.796;2023-04-01T07:35:04;10.90;99.90
54126;DHT22;40360;52.992;6.796;2023-04-01T07:38:25;11.00;99.90
54126;DHT22;40360;52.992;6.796;2023-04-01T07:46:13;11.20;99.90
54126;DHT22;40360;52.992;6.796;2023-04-01T07:52:02;11.30;99.90
54126;DHT22;40360;52.992;6.796;2023-04-01T07:54:44;11.30;99.90
54126;DHT22;40360;52.992;6.796;2023-04-01T07:57:43;11.30;99.90
54126;DHT22;40360;52.992;6.796;2023-04-01T08:08:26;11.30;99.90
54126;DHT22;40360;52.992;6.796;2023-04-01T08:19:30;11.30;99.90
54126;DHT22;40360;52.992;6.796;2023-04-01T08:21:58;11.30;99.90
54126;DHT22;40360;52.992;6.796;2023-04-01T08:24:37;11.30;99.90
54126;DHT22;40360;52.992;6.796;2023-04-01T08:32:35;11.30;99.90
54126;DHT22;40360;52.992;6.796;2023-04-01T08:35:27;11.30;99.90
54126;DHT22;40360;52.992;6.796;2023-04-01T08:37:56;11.30;99.90
54126;DHT22;40360;52.992;6.796;2023-04-01T08:40:51;11.30;99.90
54126;DHT22;40360;52.992;6.796;2023-04-01T08:55:15;11.20;99.90
54126;DHT22;40360;52.992;6.796;2023-04-01T09:00:54;11.20;99.90
54126;DHT22;40360;52.992;6.796;2023-04-01T09:15:21;11.40;99.90
54126;DHT22;40360;52.992;6.796;2023-04-01T09:18:03;11.40;99.90
54126;DHT22;40360;52.992;6.796;2023-04-01T09:39:35;11.60;99.90
54126;DHT22;40360;52.992;6.796;2023-04-01T09:42:29;11.60;99.90
54126;DHT22;40360;52.992;6.796;2023-04-01T09:48:13;11.70;99.90
54126;DHT22;40360;52.992;6.796;2023-04-01T09:53:37;11.70;99.90
54126;DHT22;40360;52.992;6.796;2023-04-01T10:30:13;11.30;99.90
54126;DHT22;40360;52.992;6.796;2023-04-01T10:33:01;11.30;99.90
54126;DHT22;40360;52.992;6.796;2023-04-01T10:35:50;11.20;99.90
54126;DHT22;40360;52.992;6.796;2023-04-01T11:06:47;10.70;99.90
54126;DHT22;40360;52.992;6.796;2023-04-01T11:09:52;10.70;99.90
54126;DHT22;40360;52.992;6.796;2023-04-01T11:15:26;10.70;99.90
54126;DHT22;40360;52.992;6.796;2023-04-01T11:42:44;10.40;99.90
54126;DHT22;40360;52.992;6.796;2023-04-01T11:53:53;10.30;99.90
54126;DHT22;40360;52.992;6.796;2023-04-01T12:13:42;10.40;99.90
54126;DHT22;40360;52.992;6.796;2023-04-01T12:16:26;10.40;99.90
54126;DHT22;40360;52.992;6.796;2023-04-01T12:21:37;10.30;99.90
54126;DHT22;40360;52.992;6.796;2023-04-01T12:35:15;10.20;99.90
54126;DHT22;40360;52.992;6.796;2023-04-01T12:43:23;10.20;99.90
54126;DHT22;40360;52.992;6.796;2023-04-01T13:10:27;10.00;99.90
54126;DHT22;40360;52.992;6.796;2023-04-01T13:19:17;9.80;99.90
54126;DHT22;40360;52.992;6.796;2023-04-01T13:21:31;9.80;99.90
54126;DHT22;40360;52.992;6.796;2023-04-01T13:27:08;9.70;99.90
54126;DHT22;40360;52.992;6.796;2023-04-01T13:30:02;9.60;99.90
54126;DHT22;40360;52.992;6.796;2023-04-01T13:38:13;9.60;99.90
54126;DHT22;40360;52.992;6.796;2023-04-01T13:43:39;9.60;99.90
54126;DHT22;40360;52.992;6.796;2023-04-01T13:57:56;9.40;99.90
54126;DHT22;40360;52.992;6.796;2023-04-01T14:00:38;9.50;99.90
54126;DHT22;40360;52.992;6.796;2023-04-01T14:11:45;9.40;99.90
54126;DHT22;40360;52.992;6.796;2023-04-01T14:17:09;9.40;99.90
54126;DHT22;40360;52.992;6.796;2023-04-01T14:20:10;9.40;99.90
54126;DHT22;40360;52.992;6.796;2023-04-01T14:22:57;9.40;99.90
54126;DHT22;40360;52.992;6.796;2023-04-01T14:31:52;9.40;99.90
54126;DHT22;40360;52.992;6.796;2023-04-01T14:37:57;9.30;99.90
54126;DHT22;40360;52.992;6.796;2023-04-01T14:43:04;9.30;99.90
54126;DHT22;40360;52.992;6.796;2023-04-01T14:45:42;9.30;99.90
54126;DHT22;40360;52.992;6.796;2023-04-01T14:51:32;9.30;99.90
54126;DHT22;40360;52.992;6.796;2023-04-01T14:57:10;9.20;99.90
54126;DHT22;40360;52.992;6.796;2023-04-01T14:59:30;9.20;99.90
54126;DHT22;40360;52.992;6.796;2023-04-01T15:04:54;9.20;99.90
54126;DHT22;40360;52.992;6.796;2023-04-01T15:13:25;9.20;99.90
54126;DHT22;40360;52.992;6.796;2023-04-01T15:16:24;9.20;99.90
54126;DHT22;40360;52.992;6.796;2023-04-01T15:24:25;9.20;99.90
54126;DHT22;40360;52.992;6.796;2023-04-01T15:33:09;9.10;99.90
54126;DHT22;40360;52.992;6.796;2023-04-01T15:38:49;9.10;99.90
54126;DHT22;40360;52.992;6.796;2023-04-01T15:41:23;9.00;99.90
54126;DHT22;40360;52.992;6.796;2023-04-01T15:43:51;9.00;99.90
54126;DHT22;40360;52.992;6.796;2023-04-01T15:46:47;9.00;99.90
54126;DHT22;40360;52.992;6.796;2023-04-01T15:49:39;9.00;99.90
54126;DHT22;40360;52.992;6.796;2023-04-01T15:52:19;9.00;99.90
54126;DHT22;40360;52.992;6.796;2023-04-01T15:58:26;8.90;99.90
54126;DHT22;40360;52.992;6.796;2023-04-01T16:06:51;8.80;99.90
54126;DHT22;40360;52.992;6.796;2023-04-01T16:12:44;8.70;99.90
54126;DHT22;40360;52.992;6.796;2023-04-01T16:15:24;8.70;99.90
54126;DHT22;40360;52.992;6.796;2023-04-01T16:20:49;8.60;99.90
54126;DHT22;40360;52.992;6.796;2023-04-01T16:29:12;8.40;99.90
54126;DHT22;40360;52.992;6.796;2023-04-01T16:37:21;8.30;99.90
54126;DHT22;40360;52.992;6.796;2023-04-01T16:40:13;8.20;99.90
54126;DHT22;40360;52.992;6.796;2023-04-01T16:42:53;8.20;99.90
54126;DHT22;40360;52.992;6.796;2023-04-01T16:48:13;8.10;99.90
54126;DHT22;40360;52.992;6.796;2023-04-01T16:50:53;8.10;99.90
54126;DHT22;40360;52.992;6.796;2023-04-01T16:53:43;8.10;99.90
54126;DHT22;40360;52.992;6.796;2023-04-01T16:56:42;8.00;99.90
54126;DHT22;40360;52.992;6.796;2023-04-01T17:04:57;7.90;99.90
54126;DHT22;40360;52.992;6.796;2023-04-01T17:24:27;7.60;99.90
54126;DHT22;40360;52.992;6.796;2023-04-01T17:27:18;7.60;99.90
54126;DHT22;40360;52.992;6.796;2023-04-01T17:38:34;7.40;99.90
54126;DHT22;40360;52.992;6.796;2023-04-01T17:44:13;7.30;99.90
54126;DHT22;40360;52.992;6.796;2023-04-01T17:57:46;7.20;99.90
54126;DHT22;40360;52.992;6.796;2023-04-01T18:06:07;7.10;99.90
54126;DHT22;40360;52.992;6.796;2023-04-01T18:08:49;7.10;99.90
54126;DHT22;40360;52.992;6.796;2023-04-01T18:11:44;7.00;99.90
54126;DHT22;40360;52.992;6.796;2023-04-01T18:30:54;6.80;99.90
54126;DHT22;40360;52.992;6.796;2023-04-01T18:36:41;6.90;99.90
54126;DHT22;40360;52.992;6.796;2023-04-01T18:39:41;6.80;99.90
54126;DHT22;40360;52.992;6.796;2023-04-01T18:42:24;6.90;99.90
54126;DHT22;40360;52.992;6.796;2023-04-01T18:44:59;6.80;99.90
54126;DHT22;40360;52.992;6.796;2023-04-01T18:50:30;6.80;99.90
54126;DHT22;40360;52.992;6.796;2023-04-01T18:55:57;6.80;99.90
54126;DHT22;40360;52.992;6.796;2023-04-01T18:59:12;6.70;99.90
54126;DHT22;40360;52.992;6.796;2023-04-01T19:02:02;6.70;99.90
54126;DHT22;40360;52.992;6.796;2023-04-01T19:05:23;6.70;99.90
54126;DHT22;40360;52.992;6.796;2023-04-01T19:10:13;6.70;99.90
54126;DHT22;40360;52.992;6.796;2023-04-01T19:12:55;6.70;99.90
54126;DHT22;40360;52.992;6.796;2023-04-01T19:24:06;6.70;99.90
54126;DHT22;40360;52.992;6.796;2023-04-01T19:29:38;6.60;99.90
54126;DHT22;40360;52.992;6.796;2023-04-01T19:40:59;6.50;99.90
54126;DHT22;40360;52.992;6.796;2023-04-01T19:46:25;6.50;99.90
54126;DHT22;40360;52.992;6.796;2023-04-01T19:49:33;6.50;99.90
54126;DHT22;40360;52.992;6.796;2023-04-01T19:52:20;6.50;99.90
54126;DHT22;40360;52.992;6.796;2023-04-01T19:58:00;6.40;99.90
54126;DHT22;40360;52.992;6.796;2023-04-01T20:00:35;6.40;99.90
54126;DHT22;40360;52.992;6.796;2023-04-01T20:06:14;6.40;99.90
54126;DHT22;40360;52.992;6.796;2023-04-01T20:08:50;6.40;99.90
54126;DHT22;40360;52.992;6.796;2023-04-01T20:13:59;6.30;99.90
54126;DHT22;40360;52.992;6.796;2023-04-01T20:17:30;6.30;99.90
54126;DHT22;40360;52.992;6.796;2023-04-01T20:22:22;6.30;99.90
54126;DHT22;40360;52.992;6.796;2023-04-01T20:24:51;6.30;99.90
54126;DHT22;40360;52.992;6.796;2023-04-01T20:27:23;6.20;99.90
54126;DHT22;40360;52.992;6.796;2023-04-01T20:30:04;6.20;99.90
54126;DHT22;40360;52.992;6.796;2023-04-01T20:32:41;6.20;99.90
54126;DHT22;40360;52.992;6.796;2023-04-01T20:38:05;6.20;99.90
54126;DHT22;40360;52.992;6.796;2023-04-01T20:40:40;6.10;99.90
54126;DHT22;40360;52.992;6.796;2023-04-01T20:43:16;6.20;99.90
54126;DHT22;40360;52.992;6.796;2023-04-01T20:45:56;6.10;99.90
54126;DHT22;40360;52.992;6.796;2023-04-01T20:48:57;6.10;99.90
54126;DHT22;40360;52.992;6.796;2023-04-01T20:51:35;6.10;99.90
54126;DHT22;40360;52.992;6.796;2023-04-01T21:07:58;5.90;99.90
54126;DHT22;40360;52.992;6.796;2023-04-01T21:13:39;5.90;99.90
54126;DHT22;40360;52.992;6.796;2023-04-01T21:16:26;5.90;99.90
54126;DHT22;40360;52.992;6.796;2023-04-01T21:21:57;5.90;99.90
54126;DHT22;40360;52.992;6.796;2023-04-01T21:37:55;5.70;99.90
54126;DHT22;40360;52.992;6.796;2023-04-01T21:43:12;5.70;99.90
54126;DHT22;40360;52.992;6.796;2023-04-01T21:46:26;5.70;99.90
54126;DHT22;40360;52.992;6.796;2023-04-01T21:49:29;5.70;99.90
54126;DHT22;40360;52.992;6.796;2023-04-01T22:00:25;5.70;99.90
54126;DHT22;40360;52.992;6.796;2023-04-01T22:03:14;5.70;99.90
54126;DHT22;40360;52.992;6.796;2023-04-01T22:14:21;5.60;99.90
54126;DHT22;40360;52.992;6.796;2023-04-01T22:17:25;5.50;99.90
54126;DHT22;40360;52.992;6.796;2023-04-01T22:20:03;5.50;99.90
54126;DHT22;40360;52.992;6.796;2023-04-01T22:25:19;5.50;99.90
54126;DHT22;40360;52.992;6.796;2023-04-01T22:30:52;5.40;99.90
54126;DHT22;40360;52.992;6.796;2023-04-01T22:33:42;5.40;99.90
54126;DHT22;40360;52.992;6.796;2023-04-01T22:36:26;5.40;99.90
54126;DHT22;40360;52.992;6.796;2023-04-01T22:49:52;5.30;99.90
54126;DHT22;40360;52.992;6.796;2023-04-01T22:52:39;5.30;99.90
54126;DHT22;40360;52.992;6.796;2023-04-01T22:55:22;5.20;99.90
54126;DHT22;40360;52.992;6.796;2023-04-01T22:58:04;5.20;99.90
54126;DHT22;40360;52.992;6.796;2023-04-01T23:00:45;5.20;99.90
54126;DHT22;40360;52.992;6.796;2023-04-01T23:05:41;5.20;99.90
54126;DHT22;40360;52.992;6.796;2023-04-01T23:11:02;5.10;99.90
54126;DHT22;40360;52.992;6.796;2023-04-01T23:13:39;5.10;99.90
54126;DHT22;40360;52.992;6.796;2023-04-01T23:16:08;5.10;99.90
54126;DHT22;40360;52.992;6.796;2023-04-01T23:18:55;5.10;99.90
54126;DHT22;40360;52.992;6.796;2023-04-01T23:21:48;5.00;99.90
54126;DHT22;40360;52.992;6.796;2023-04-01T23:27:01;5.00;99.90
54126;DHT22;40360;52.992;6.796;2023-04-01T23:29:29;5.00;99.90
54126;DHT22;40360;52.992;6.796;2023-04-01T23:31:58;5.00;99.90
54126;DHT22;40360;52.992;6.796;2023-04-01T23:34:30;4.90;99.90
54126;DHT22;40360;52.992;6.796;2023-04-01T23:37:05;4.90;99.90
54126;DHT22;40360;52.992;6.796;2023-04-01T23:39:35;5.00;99.90
54126;DHT22;40360;52.992;6.796;2023-04-01T23:42:31;4.80;99.90
54126;DHT22;40360;52.992;6.796;2023-04-01T23:45:11;4.80;99.90
54126;DHT22;40360;52.992;6.796;2023-04-01T23:47:39;4.70;99.90
54126;DHT22;40360;52.992;6.796;2023-04-01T23:50:16;4.70;99.90
54126;DHT22;40360;52.992;6.796;2023-04-01T23:52:52;4.70;99.90
54126;DHT22;40360;52.992;6.796;2023-04-01T23:55:24;4.60;99.90
54126;DHT22;40360;52.992;6.796;2023-04-01T23:58:02;4.70;99.90
